Terminal Aerodrome Forecast
Issued by NWS Sioux Falls, SD

Home | Current Version | Previous Version | Graphics & Text | Print | Product List | Glossary On
Versions: 1 2 3 4 5 6 7 8 9 10 11 12 13 14 15 16 17
000
FTUS43 KFSD 291005 AAB
TAFFSD
TAF AMD
KFSD 291005Z 2910/3006 17009KT 6SM BR SCT009 BKN100
      TEMPO 2910/2912 5SM BR BKN007
     FM291200 VRB04KT 6SM SHRA BKN040 BKN080
     FM291500 01010KT 6SM -RA OVC025
     FM291700 03015G24KT P6SM BKN020
     FM300000 02012KT P6SM SCT030 SCT150=

USA.gov is the U.S. government's official web portal to all federal, state and local government web resources and services.